Terminal Aerodrome Forecast
Issued by NWS

Home | Current Version | Previous Version | Text Only | Print | Product List | Glossary On
Versions: 1 2 3 4 5 6 7 8 9 10 11 12 13 14 15
000
FTUS46 KSEW 260200 AAB
TAFCLM
TAF AMD
KCLM 260223Z 2602/2624 26014G25KT P6SM -RA BKN012 OVC060
      TEMPO 2603/2607 27025G35KT 5SM -RA BR SCT012 OVC060
     FM260700 27016G25KT P6SM -SHRA BKN015 OVC030
     FM261500 27012KT P6SM -SHRA BKN015
     FM262100 29012KT P6SM -SHRA SCT020 BKN035=

USA.gov is the U.S. government's official web portal to all federal, state and local government web resources and services.